Time;durP1;ratioP1;P1;durP2;ratioP2;P2;SDS_P1;SDS_P2;PMS_P1;PMS_P2;Temp;Humidity;BMP_temperature;BMP_pressure;BME280_temperature;BME280_humidity;BME280_pressure;Samples;Min_cycle;Max_cycle;Signal;HPM_P1;HPM_P2
2021/10/25 00:03:35;;;;;;;27.8;32.9;;;;;;;0.4;81.4;100050;;;;
2021/10/25 00:13:35;;;;;;;27.8;32.1;;;;;;;0.4;81.6;100040;;;;
2021/10/25 00:23:35;;;;;;;27.8;32.1;;;;;;;0.3;81.6;100040;;;;
2021/10/25 00:33:35;;;;;;;27.8;32.1;;;;;;;0.2;81.2;100020;;;;
2021/10/25 00:43:35;;;;;;;27.7;32.5;;;;;;;0.2;81.5;100020;;;;
2021/10/25 00:53:35;;;;;;;27.7;32.5;;;;;;;0.2;81.5;100010;;;;
2021/10/25 01:03:35;;;;;;;27.7;32.5;;;;;;;0;82.1;100000;;;;
2021/10/25 01:13:35;;;;;;;29.5;40.4;;;;;;;0;81.4;100000;;;;
2021/10/25 01:23:35;;;;;;;29.5;40.4;;;;;;;-0.1;81.1;100000;;;;
2021/10/25 01:33:36;;;;;;;29.5;40.4;;;;;;;-0.3;80.8;99980;;;;
2021/10/25 01:43:35;;;;;;;26.8;35.6;;;;;;;-0.4;80.9;99980;;;;
2021/10/25 01:53:35;;;;;;;26.8;35.6;;;;;;;-0.4;81.3;99970;;;;
2021/10/25 02:04:35;;;;;;;26.8;35.6;;;;;;;-0.5;81.4;99950;;;;
2021/10/25 02:14:35;;;;;;;23.5;33.3;;;;;;;-0.6;81.5;99940;;;;
2021/10/25 02:24:35;;;;;;;23.5;33.3;;;;;;;-0.6;81.8;99930;;;;
2021/10/25 02:34:35;;;;;;;23.5;33.3;;;;;;;-0.6;81.6;99930;;;;
2021/10/25 02:44:35;;;;;;;19.5;26.4;;;;;;;-0.6;82;99940;;;;
2021/10/25 02:54:35;;;;;;;19.5;26.4;;;;;;;-0.7;81.3;99940;;;;
2021/10/25 03:04:35;;;;;;;20;26.2;;;;;;;-0.9;81.7;99930;;;;
2021/10/25 03:15:35;;;;;;;20;26.2;;;;;;;-0.8;82;99930;;;;
2021/10/25 03:25:35;;;;;;;20;26.2;;;;;;;-0.9;81.5;99930;;;;
2021/10/25 03:35:35;;;;;;;15.9;21.9;;;;;;;-0.9;81.5;99920;;;;
2021/10/25 03:45:38;;;;;;;15.9;21.9;;;;;;;-0.9;81.5;99910;;;;
2021/10/25 03:55:39;;;;;;;15.9;21.9;;;;;;;-0.9;82.2;99900;;;;
2021/10/25 04:26:02;;;;;;;13.9;20.5;;;;;;;-0.6;83.1;99870;;;;
2021/10/25 04:35:35;;;;;;;21;26.4;;;;;;;-0.6;82.6;99850;;;;
2021/10/25 04:45:35;;;;;;;21;26.4;;;;;;;-0.7;81.9;99850;;;;
2021/10/25 04:55:35;;;;;;;21;26.4;;;;;;;-0.8;81.3;99840;;;;
2021/10/25 05:05:35;;;;;;;24.1;34.1;;;;;;;-1;81.1;99840;;;;
2021/10/25 05:15:35;;;;;;;24.1;34.1;;;;;;;-1.1;81.5;99840;;;;
2021/10/25 05:25:36;;;;;;;24.1;34.1;;;;;;;-1.1;81.3;99830;;;;
2021/10/25 05:35:35;;;;;;;26.8;31.2;;;;;;;-1.1;81.3;99830;;;;
2021/10/25 05:45:36;;;;;;;26.8;31.2;;;;;;;-1.1;81.3;99840;;;;
2021/10/25 05:55:37;;;;;;;26.8;31.2;;;;;;;-1;81.2;99830;;;;
2021/10/25 06:05:37;;;;;;;37.4;45.9;;;;;;;-1;81.1;99840;;;;
2021/10/25 06:16:38;;;;;;;37.4;45.9;;;;;;;-0.8;81.1;99840;;;;
2021/10/25 06:26:35;;;;;;;37.4;45.9;;;;;;;-0.6;81.5;99840;;;;
2021/10/25 06:36:36;;;;;;;33.9;47.6;;;;;;;-0.2;81.7;99840;;;;
2021/10/25 06:46:39;;;;;;;33.9;47.6;;;;;;;0.1;81.9;99850;;;;
2021/10/25 06:56:35;;;;;;;33.9;47.6;;;;;;;0.6;81.9;99850;;;;
2021/10/25 07:06:36;;;;;;;33.8;40.3;;;;;;;1;81.9;99840;;;;
2021/10/25 07:16:39;;;;;;;33.8;40.3;;;;;;;1.4;82.1;99840;;;;
2021/10/25 08:06:43;;;;;;;32.1;40.2;;;;;;;3.9;79.4;99810;;;;
2021/10/25 08:16:44;;;;;;;32.1;40.2;;;;;;;4.5;77.9;99810;;;;
2021/10/25 08:26:35;;;;;;;32.1;40.2;;;;;;;5;76.1;99800;;;;
2021/10/25 08:46:35;;;;;;;26.9;31.7;;;;;;;6.1;74.8;99800;;;;
2021/10/25 08:56:35;;;;;;;26.9;31.7;;;;;;;6.6;73;99780;;;;
2021/10/25 09:06:35;;;;;;;22.8;30;;;;;;;7.2;71.9;99780;;;;
2021/10/25 09:16:35;;;;;;;22.8;30;;;;;;;7.8;70.3;99760;;;;
2021/10/25 09:26:35;;;;;;;22.8;30;;;;;;;8.4;68.9;99750;;;;
2021/10/25 09:37:43;;;;;;;21.6;26.1;;;;;;;9;66.7;99740;;;;
2021/10/25 09:57:41;;;;;;;21.6;26.1;;;;;;;10;61.7;99730;;;;
2021/10/25 10:07:35;;;;;;;17.9;22.6;;;;;;;10.6;59.9;99730;;;;
2021/10/25 10:17:35;;;;;;;17.9;22.6;;;;;;;10.9;57.9;99720;;;;
2021/10/25 10:27:35;;;;;;;17.9;22.6;;;;;;;11.3;55.8;99710;;;;
2021/10/25 10:37:35;;;;;;;15;19;;;;;;;11.8;54;99700;;;;
2021/10/25 10:48:37;;;;;;;15;19;;;;;;;12.2;53.6;99690;;;;
2021/10/25 10:58:41;;;;;;;15;19;;;;;;;12.5;49.8;99670;;;;
2021/10/25 11:08:35;;;;;;;13.4;23.9;;;;;;;12.8;50.9;99650;;;;
2021/10/25 11:18:36;;;;;;;13.4;23.9;;;;;;;13.2;51;99650;;;;
2021/10/25 11:28:35;;;;;;;13.4;23.9;;;;;;;13.3;49.4;99650;;;;
2021/10/25 11:38:35;;;;;;;12.9;21.6;;;;;;;13.4;48.9;99650;;;;
2021/10/25 11:48:35;;;;;;;12.9;21.6;;;;;;;13.7;47.9;99620;;;;
2021/10/25 11:58:35;;;;;;;12.9;21.6;;;;;;;13.8;48.6;99620;;;;
2021/10/25 12:08:35;;;;;;;11.4;14.5;;;;;;;13.9;47.3;99610;;;;
2021/10/25 12:18:35;;;;;;;11.4;14.5;;;;;;;14.2;47.6;99610;;;;
2021/10/25 12:28:35;;;;;;;11.4;14.5;;;;;;;14.4;47.1;99600;;;;
2021/10/25 12:38:35;;;;;;;11.4;17.7;;;;;;;14.6;47.1;99590;;;;
2021/10/25 12:48:35;;;;;;;11.4;17.7;;;;;;;14.5;47.2;99570;;;;
2021/10/25 12:58:35;;;;;;;11.4;17.7;;;;;;;14.7;47;99570;;;;
2021/10/25 13:08:35;;;;;;;10.3;15.3;;;;;;;14.8;46.5;99560;;;;
2021/10/25 13:18:35;;;;;;;10.3;15.3;;;;;;;14.8;45.8;99540;;;;
2021/10/25 13:29:35;;;;;;;10.3;15.3;;;;;;;14.8;47.3;99540;;;;
2021/10/25 13:39:35;;;;;;;8.3;15.7;;;;;;;14.8;46.8;99520;;;;
2021/10/25 13:49:35;;;;;;;8.3;15.7;;;;;;;14.6;47.5;99500;;;;
2021/10/25 13:59:35;;;;;;;8.3;15.7;;;;;;;14.6;47.1;99490;;;;
2021/10/25 14:09:36;;;;;;;7.9;12.3;;;;;;;14.3;47.7;99480;;;;
2021/10/25 14:19:38;;;;;;;7.9;12.3;;;;;;;14.1;48.1;99480;;;;
2021/10/25 14:29:35;;;;;;;7.9;12.3;;;;;;;13.6;49.1;99450;;;;
2021/10/25 14:39:39;;;;;;;6.1;10.6;;;;;;;13.2;49.6;99440;;;;
2021/10/25 14:59:35;;;;;;;6.1;10.6;;;;;;;12.2;52;99420;;;;
2021/10/25 15:09:35;;;;;;;5.4;9.3;;;;;;;11.5;53.4;99420;;;;
2021/10/25 15:19:36;;;;;;;5.4;9.3;;;;;;;11;54.8;99420;;;;
2021/10/25 15:29:35;;;;;;;5.4;9.3;;;;;;;10.4;56.2;99410;;;;
2021/10/25 15:40:36;;;;;;;6.4;10.5;;;;;;;9.9;57.1;99400;;;;
2021/10/25 15:50:35;;;;;;;6.4;10.5;;;;;;;9.3;58.5;99400;;;;
2021/10/25 16:00:35;;;;;;;6.4;10.5;;;;;;;8.6;62.4;99390;;;;
2021/10/25 16:10:35;;;;;;;10.6;17.4;;;;;;;8;63.2;99390;;;;
2021/10/25 16:20:35;;;;;;;10.6;17.4;;;;;;;7.4;64.2;99400;;;;
2021/10/25 16:30:35;;;;;;;10.6;17.4;;;;;;;7.2;67.1;99380;;;;
2021/10/25 16:40:37;;;;;;;19.5;29.1;;;;;;;6.8;66.8;99390;;;;
2021/10/25 16:50:37;;;;;;;19.5;29.1;;;;;;;6.6;67.2;99390;;;;
2021/10/25 17:10:36;;;;;;;26.9;35.4;;;;;;;6.1;70.3;99410;;;;
2021/10/25 17:20:35;;;;;;;26.9;35.4;;;;;;;5.8;69.3;99400;;;;
2021/10/25 17:30:36;;;;;;;26.9;35.4;;;;;;;5.6;70.2;99410;;;;
2021/10/25 17:40:36;;;;;;;25.3;29.6;;;;;;;5.4;71.7;99400;;;;
2021/10/25 17:50:35;;;;;;;25.3;29.6;;;;;;;5.2;72.1;99400;;;;
2021/10/25 18:00:35;;;;;;;25.3;29.6;;;;;;;5.1;73.6;99400;;;;
2021/10/25 18:10:35;;;;;;;26.2;34.2;;;;;;;4.8;73.3;99390;;;;
2021/10/25 18:20:36;;;;;;;26.2;34.2;;;;;;;4.6;73.7;99400;;;;
2021/10/25 18:30:35;;;;;;;26.2;34.2;;;;;;;4.4;73.4;99400;;;;
2021/10/25 18:40:35;;;;;;;28.5;34.8;;;;;;;4.2;74;99410;;;;
2021/10/25 18:50:35;;;;;;;28.5;34.8;;;;;;;4;74.6;99400;;;;
2021/10/25 19:00:35;;;;;;;28.5;34.8;;;;;;;3.8;75.2;99400;;;;
2021/10/25 19:11:37;;;;;;;42.1;55.3;;;;;;;3.6;75.1;99400;;;;
2021/10/25 19:21:35;;;;;;;42.1;55.3;;;;;;;3.5;77.1;99400;;;;
2021/10/25 19:31:35;;;;;;;42.1;55.3;;;;;;;3.3;78;99400;;;;
2021/10/25 19:41:35;;;;;;;55.1;64.4;;;;;;;3.4;78.5;99410;;;;
2021/10/25 19:51:36;;;;;;;55.1;64.4;;;;;;;3.2;77.5;99410;;;;
2021/10/25 20:01:35;;;;;;;55.1;64.4;;;;;;;3.5;80.1;99410;;;;
2021/10/25 20:11:36;;;;;;;40;49.7;;;;;;;3.2;78.9;99400;;;;
2021/10/25 20:22:35;;;;;;;40;49.7;;;;;;;3.3;79.6;99390;;;;
2021/10/25 20:32:35;;;;;;;43.6;52.5;;;;;;;3.2;79.2;99390;;;;
2021/10/25 20:42:35;;;;;;;43.6;52.5;;;;;;;3;78.5;99400;;;;
2021/10/25 20:52:35;;;;;;;43.6;52.5;;;;;;;2.9;78.5;99400;;;;
2021/10/25 21:03:36;;;;;;;57.9;68.1;;;;;;;2.7;78.9;99400;;;;
2021/10/25 21:13:35;;;;;;;57.9;68.1;;;;;;;2.5;79.9;99390;;;;
2021/10/25 21:23:35;;;;;;;57.9;68.1;;;;;;;2.3;79.4;99400;;;;
2021/10/25 21:33:36;;;;;;;68.1;77.9;;;;;;;2.2;79.4;99400;;;;
2021/10/25 21:43:36;;;;;;;68.1;77.9;;;;;;;2.2;81.5;99400;;;;
2021/10/25 21:53:36;;;;;;;68.1;77.9;;;;;;;2.3;81.4;99390;;;;
2021/10/25 22:03:37;;;;;;;55.4;64.6;;;;;;;2.5;82.5;99390;;;;
2021/10/25 22:13:36;;;;;;;55.4;64.6;;;;;;;2.4;81.4;99400;;;;
2021/10/25 22:24:36;;;;;;;55.4;64.6;;;;;;;2.4;81.6;99370;;;;
2021/10/25 22:34:36;;;;;;;49.2;60.2;;;;;;;2.3;81.5;99360;;;;
2021/10/25 22:44:36;;;;;;;49.2;60.2;;;;;;;2.2;80.8;99360;;;;
2021/10/25 22:54:36;;;;;;;49.2;60.2;;;;;;;2.1;80.4;99360;;;;
2021/10/25 23:04:36;;;;;;;44.4;59.8;;;;;;;1.8;79.9;99360;;;;
2021/10/25 23:14:36;;;;;;;44.4;59.8;;;;;;;1.5;79.8;99370;;;;
2021/10/25 23:24:36;;;;;;;44.4;59.8;;;;;;;1.2;81.3;99370;;;;
2021/10/25 23:34:36;;;;;;;57.7;68.2;;;;;;;1.1;80.4;99380;;;;
2021/10/25 23:44:37;;;;;;;57.7;68.2;;;;;;;1.2;81.5;99370;;;;
2021/10/25 23:54:36;;;;;;;57.7;68.2;;;;;;;1.1;81.2;99370;;;;
